Portada
METAR-TAF:

METAR-TAF

Aeropuertos :

Aeropuerto de Innsbruck

Innsbruck, Austria

latitud: 47-16N, longitud: 011-21E, altitud: 581 m

Observación

El informe se hizo hace 18 minutos, a las 08:50 UTC
Viento 2 kt con dirección variable
Temperatura 20°C
Humedad 46%
Presión 1017 hPa
Visibilidad 10 km o más
Escasas nubes a una altura de 5500 ft

METAR: LOWI 020850Z VRB02KT 9999 FEW055 20/08 Q1017 BECMG FM1000 08008KT

Hora: 11:08 (09:08 UTC)

Pronóstico

El informe se hizo hace 3 horas y 53 minutos, a las 05:15 UTC
Pronóstico válido del 02 a las 06 UTC al 03 a las 06 UTC
Viento 3 kt del oeste
Visibilidad 10 km o más
Escasas nubes a una altura de 7000 ft
Evolucionando progresivamente
del 02 a las 10 UTC al 02 a las 12 UTC
Viento 10 kt del este
Evolucionando progresivamente
del 02 a las 18 UTC al 02 a las 20 UTC
Viento 3 kt del oeste

TAF: LOWI 020515Z 0206/0306 27003KT 9999 FEW070 TX25/0214Z TN10/0304Z BECMG 0210/0212 08010KT BECMG 0218/0220 27003KT

Observaciones y pronósticos meteorológicos de más de 4000 aeropuertos (mensajes METAR y TAF).

Los puntos amarillos y rojos representan las estaciones disponibles.

Ponga el ratón en el punto deseado para ver el nombre de la estación.

Haga clic para ver las observaciones y los pronósticos meteorológicos.

Para cambiar el mapa : haga clic en los botones verdes con una cruz de color negro para hacer un zoom, en el botón verde con un guión para alejar o en las flechas verdes para mapas adyacentes.


METAR-TAF: